Time;durP1;ratioP1;P1;durP2;ratioP2;P2;SDS_P1;SDS_P2;PMS_P1;PMS_P2;Temp;Humidity;BMP_temperature;BMP_pressure;BME280_temperature;BME280_humidity;BME280_pressure;Samples;Min_cycle;Max_cycle;Signal;HPM_P1;HPM_P2
2023/04/08 00:00:51;;;;;;;38.83;24.63;;;5.20;99.90;;;;;;2089713;28;20078;-69
2023/04/08 00:01:53;;;;;;;36.65;24.27;;;5.20;99.90;;;;;;2082025;28;20100;-69
2023/04/08 00:02:53;;;;;;;40.30;26.58;;;5.20;99.90;;;;;;2085933;28;20040;-69
2023/04/08 00:03:54;;;;;;;41.75;26.35;;;5.20;99.90;;;;;;2069587;28;20018;-69
2023/04/08 00:04:54;;;;;;;38.85;25.55;;;5.20;99.90;;;;;;2076242;28;20026;-69
2023/04/08 00:05:55;;;;;;;39.53;25.50;;;5.20;99.90;;;;;;2095655;28;20036;-68
2023/04/08 00:06:56;;;;;;;36.20;23.88;;;5.20;99.90;;;;;;2095376;28;20024;-69
2023/04/08 00:07:57;;;;;;;37.47;25.02;;;5.20;99.90;;;;;;2090954;28;20552;-68
2023/04/08 00:08:57;;;;;;;39.78;26.23;;;5.20;99.90;;;;;;2084853;28;20123;-69
2023/04/08 00:09:58;;;;;;;43.25;26.85;;;5.30;99.90;;;;;;2079290;28;20110;-69
2023/04/08 00:10:58;;;;;;;43.28;27.60;;;5.30;99.90;;;;;;2083923;28;20433;-69
2023/04/08 00:12:00;;;;;;;41.83;27.23;;;5.30;99.90;;;;;;2083917;28;20523;-69
2023/04/08 00:13:00;;;;;;;41.42;26.27;;;5.30;99.90;;;;;;2081868;28;20378;-69
2023/04/08 00:14:02;;;;;;;40.75;25.98;;;5.30;99.90;;;;;;2086054;28;20036;-69
2023/04/08 00:15:02;;;;;;;38.25;25.08;;;5.30;99.90;;;;;;2084662;28;20045;-69
2023/04/08 00:16:03;;;;;;;41.80;26.90;;;5.30;99.90;;;;;;2084719;28;20036;-68
2023/04/08 00:17:04;;;;;;;38.55;25.00;;;5.30;99.90;;;;;;2085642;28;20437;-70
2023/04/08 00:18:06;;;;;;;41.15;25.85;;;5.30;99.90;;;;;;2088898;28;20333;-69
2023/04/08 00:19:07;;;;;;;44.42;27.55;;;5.30;99.90;;;;;;2081824;28;20041;-69
2023/04/08 00:20:07;;;;;;;41.15;26.20;;;5.30;99.90;;;;;;2081908;28;20029;-68
2023/04/08 00:21:08;;;;;;;41.15;26.80;;;5.30;99.90;;;;;;2083583;28;20033;-69
2023/04/08 00:22:09;;;;;;;40.80;26.83;;;5.30;99.90;;;;;;2095121;28;20075;-69
2023/04/08 00:23:10;;;;;;;40.05;25.95;;;5.40;99.90;;;;;;2094941;28;20375;-68
2023/04/08 00:24:10;;;;;;;41.47;27.00;;;5.40;99.90;;;;;;2084292;28;20037;-69
2023/04/08 00:25:11;;;;;;;40.13;26.42;;;5.40;99.90;;;;;;2095118;28;20066;-69
2023/04/08 00:26:12;;;;;;;41.17;25.73;;;5.40;99.90;;;;;;2089074;28;20145;-69
2023/04/08 00:27:14;;;;;;;41.60;25.65;;;5.40;99.90;;;;;;2086019;28;20506;-69
2023/04/08 00:28:14;;;;;;;42.30;27.00;;;5.40;99.90;;;;;;2085112;28;20144;-68
2023/04/08 00:29:15;;;;;;;43.88;26.67;;;5.40;99.90;;;;;;2086039;28;20029;-69
2023/04/08 00:30:16;;;;;;;42.97;26.98;;;5.40;99.90;;;;;;2078657;28;20125;-68
2023/04/08 00:31:19;;;;;;;42.60;26.75;;;5.40;99.90;;;;;;2076974;28;20022;-69
2023/04/08 00:32:20;;;;;;;46.00;28.17;;;5.50;99.90;;;;;;2091624;28;20083;-68
2023/04/08 00:33:20;;;;;;;45.67;27.70;;;5.40;99.90;;;;;;2087289;28;20028;-69
2023/04/08 00:34:21;;;;;;;44.08;26.73;;;5.40;99.90;;;;;;2083881;28;20387;-68
2023/04/08 00:35:22;;;;;;;42.67;26.00;;;5.40;99.90;;;;;;2096380;28;20594;-69
2023/04/08 00:36:22;;;;;;;42.33;25.50;;;5.40;99.90;;;;;;2091610;28;20055;-69
2023/04/08 00:37:26;;;;;;;46.15;27.05;;;5.40;99.90;;;;;;2079862;28;20026;-70
2023/04/08 00:38:26;;;;;;;43.63;26.13;;;5.40;99.90;;;;;;2082599;28;20494;-70
2023/04/08 00:39:27;;;;;;;41.97;25.70;;;5.40;99.90;;;;;;2085983;28;20025;-69
2023/04/08 00:40:28;;;;;;;45.67;26.92;;;5.50;99.90;;;;;;2088188;28;20159;-70
2023/04/08 00:41:28;;;;;;;41.30;25.48;;;5.40;99.90;;;;;;2080467;28;20108;-69
2023/04/08 00:42:30;;;;;;;43.20;25.75;;;5.40;99.90;;;;;;2094861;28;20035;-69
2023/04/08 00:43:31;;;;;;;39.85;24.30;;;5.50;99.90;;;;;;2094941;28;20460;-69
2023/04/08 00:44:32;;;;;;;39.15;24.48;;;5.40;99.90;;;;;;2085318;28;20023;-68
2023/04/08 00:45:33;;;;;;;43.47;25.45;;;5.50;99.90;;;;;;2086863;28;20141;-68
2023/04/08 00:46:37;;;;;;;41.13;24.55;;;5.50;99.90;;;;;;2096813;28;20082;-68
2023/04/08 00:47:38;;;;;;;41.53;24.98;;;5.50;99.90;;;;;;2093870;28;20032;-68
2023/04/08 00:48:39;;;;;;;43.00;25.40;;;5.60;99.90;;;;;;2081911;28;20049;-68
2023/04/08 00:49:40;;;;;;;43.03;25.70;;;5.60;99.90;;;;;;2086224;28;20524;-68
2023/04/08 00:50:42;;;;;;;43.72;25.77;;;5.50;99.90;;;;;;2084212;28;20488;-68
2023/04/08 00:51:43;;;;;;;42.13;24.52;;;5.50;99.90;;;;;;2076144;28;20366;-68
2023/04/08 00:52:44;;;;;;;41.08;24.67;;;5.50;99.90;;;;;;2095650;28;20047;-68
2023/04/08 00:53:45;;;;;;;42.88;25.50;;;5.60;99.90;;;;;;2087110;28;20024;-68
2023/04/08 00:54:46;;;;;;;44.80;26.10;;;5.60;99.90;;;;;;2084582;28;20492;-68
2023/04/08 00:55:46;;;;;;;41.92;25.45;;;5.60;99.90;;;;;;2083642;28;20085;-68
2023/04/08 00:56:47;;;;;;;41.33;25.10;;;5.50;99.90;;;;;;2085912;28;20040;-68
2023/04/08 00:57:48;;;;;;;41.45;25.10;;;5.50;99.90;;;;;;2089318;28;20036;-69
2023/04/08 00:58:52;;;;;;;45.10;25.88;;;5.50;99.90;;;;;;2089770;28;20120;-68
2023/04/08 00:59:53;;;;;;;41.53;24.88;;;5.50;99.90;;;;;;2083948;28;20048;-69
2023/04/08 01:01:01;;;;;;;43.38;25.85;;;5.50;99.90;;;;;;2084438;28;20057;-69
2023/04/08 01:02:25;;;;;;;44.60;26.70;;;5.50;99.90;;;;;;2076610;28;20017;-69
2023/04/08 01:03:41;;;;;;;43.67;24.92;;;5.50;99.90;;;;;;2082420;28;20431;-69
2023/04/08 01:05:05;;;;;;;41.95;25.15;;;5.50;99.90;;;;;;2081131;28;20120;-69
2023/04/08 01:06:18;;;;;;;45.90;26.15;;;5.50;99.90;;;;;;2080983;28;20037;-70
2023/04/08 01:07:25;;;;;;;43.00;25.25;;;5.50;99.90;;;;;;2083791;28;20029;-69
2023/04/08 01:08:30;;;;;;;43.85;25.00;;;5.50;99.90;;;;;;2072957;28;20483;-68
2023/04/08 01:09:34;;;;;;;40.90;24.42;;;5.50;99.90;;;;;;2079600;28;20020;-68
2023/04/08 01:10:37;;;;;;;42.13;24.38;;;5.50;99.90;;;;;;2085492;28;20059;-77
2023/04/08 01:11:44;;;;;;;38.92;23.25;;;5.50;99.90;;;;;;2069556;28;20030;-69
2023/04/08 01:12:56;;;;;;;38.72;23.95;;;5.60;99.90;;;;;;2069985;28;20104;-76
2023/04/08 01:13:57;;;;;;;42.75;25.50;;;5.60;99.90;;;;;;2074417;28;20404;-77
2023/04/08 01:15:06;;;;;;;41.42;24.77;;;5.60;99.90;;;;;;2080504;28;20041;-77
2023/04/08 01:16:13;;;;;;;44.70;26.15;;;5.60;99.90;;;;;;2078428;28;20112;-76
2023/04/08 01:17:16;;;;;;;42.78;24.70;;;5.50;99.90;;;;;;2083429;28;20578;-76
2023/04/08 01:18:18;;;;;;;40.17;24.08;;;5.50;99.90;;;;;;2081917;28;20036;-76
2023/04/08 01:19:28;;;;;;;39.63;24.05;;;5.50;99.90;;;;;;2081409;28;20123;-76
2023/04/08 01:20:29;;;;;;;40.22;24.08;;;5.50;99.90;;;;;;2081624;28;20427;-75
2023/04/08 01:21:31;;;;;;;42.58;24.35;;;5.60;99.90;;;;;;2088270;28;20029;-77
2023/04/08 01:22:59;;;;;;;38.42;22.85;;;5.60;99.90;;;;;;2078649;28;20038;-77
2023/04/08 01:24:12;;;;;;;41.47;23.48;;;5.60;99.90;;;;;;2079653;28;20032;-76
2023/04/08 01:25:20;;;;;;;42.50;24.50;;;5.60;99.90;;;;;;2085922;28;20033;-77
2023/04/08 01:26:25;;;;;;;41.13;23.42;;;5.60;99.90;;;;;;2086162;28;20017;-77
2023/04/08 01:27:29;;;;;;;42.53;24.38;;;5.60;99.90;;;;;;2086777;28;20439;-76
2023/04/08 01:28:32;;;;;;;40.33;23.20;;;5.60;99.90;;;;;;2085583;28;20075;-76
2023/04/08 01:29:34;;;;;;;38.92;23.23;;;5.60;99.90;;;;;;2081446;28;20018;-76
2023/04/08 01:30:37;;;;;;;37.42;23.13;;;5.60;99.90;;;;;;2085398;28;20026;-77
2023/04/08 01:31:40;;;;;;;37.00;23.05;;;5.60;99.90;;;;;;2079623;28;20112;-76
2023/04/08 01:32:42;;;;;;;39.95;23.75;;;5.60;99.90;;;;;;2084351;28;20028;-76
2023/04/08 01:33:45;;;;;;;35.95;21.90;;;5.60;99.90;;;;;;2079504;28;20026;-76
2023/04/08 01:34:46;;;;;;;37.15;21.92;;;5.60;99.90;;;;;;2091226;28;20043;-75
2023/04/08 01:35:47;;;;;;;36.50;21.88;;;5.60;99.90;;;;;;2095830;28;20263;-76
2023/04/08 01:36:49;;;;;;;35.05;21.25;;;5.60;99.90;;;;;;2081359;28;20131;-76
2023/04/08 01:37:51;;;;;;;35.10;20.45;;;5.60;99.90;;;;;;2085493;28;20029;-76
2023/04/08 01:38:51;;;;;;;33.42;21.08;;;5.60;99.90;;;;;;2085495;28;20056;-76
2023/04/08 01:39:53;;;;;;;33.58;20.02;;;5.60;99.90;;;;;;2082871;28;20605;-76
2023/04/08 01:40:55;;;;;;;33.50;20.45;;;5.70;99.90;;;;;;2079147;28;20032;-77
2023/04/08 01:41:58;;;;;;;32.85;19.52;;;5.70;99.90;;;;;;2085062;28;20038;-76
2023/04/08 01:43:00;;;;;;;31.73;19.58;;;5.70;99.90;;;;;;2084324;28;20442;-76
2023/04/08 01:44:03;;;;;;;38.55;22.42;;;5.70;99.90;;;;;;2094606;28;20185;-77
2023/04/08 01:45:05;;;;;;;34.33;20.67;;;5.70;99.90;;;;;;2094277;28;20032;-77
2023/04/08 01:46:09;;;;;;;35.92;21.60;;;5.70;99.90;;;;;;2089935;28;20024;-76
2023/04/08 01:47:12;;;;;;;38.95;22.30;;;5.70;99.90;;;;;;2094628;28;20063;-75
2023/04/08 01:48:14;;;;;;;38.28;22.00;;;5.70;99.90;;;;;;2083596;28;20139;-77
2023/04/08 01:49:15;;;;;;;36.17;21.08;;;5.70;99.90;;;;;;2085467;28;20030;-77
2023/04/08 01:50:16;;;;;;;36.15;20.85;;;5.70;99.90;;;;;;2080570;28;20475;-76
2023/04/08 01:51:17;;;;;;;35.72;20.88;;;5.70;99.90;;;;;;2076945;28;20024;-77
2023/04/08 01:52:21;;;;;;;32.72;20.08;;;5.70;99.90;;;;;;2084024;28;20022;-76
2023/04/08 01:53:22;;;;;;;33.35;20.02;;;5.70;99.90;;;;;;2094797;28;20043;-77
2023/04/08 01:54:22;;;;;;;32.80;19.80;;;5.70;99.90;;;;;;2094554;28;20119;-77
2023/04/08 01:55:24;;;;;;;33.35;20.00;;;5.70;99.90;;;;;;2089465;28;20025;-77
2023/04/08 01:56:28;;;;;;;33.63;19.30;;;5.70;99.90;;;;;;2080084;28;20029;-77
2023/04/08 01:57:32;;;;;;;33.35;19.98;;;5.60;99.90;;;;;;2083335;28;20040;-77
2023/04/08 01:58:41;;;;;;;34.78;20.15;;;5.60;99.90;;;;;;2073531;28;20809;-78
2023/04/08 01:59:43;;;;;;;33.40;19.67;;;5.70;99.90;;;;;;2087382;28;20085;-77
2023/04/08 02:00:45;;;;;;;32.35;19.08;;;5.70;99.90;;;;;;2096124;28;20531;-77
2023/04/08 02:01:49;;;;;;;33.33;19.10;;;5.70;99.90;;;;;;2088291;28;20063;-77
2023/04/08 02:02:50;;;;;;;30.77;18.20;;;5.60;99.90;;;;;;2084201;28;20032;-77
2023/04/08 02:03:56;;;;;;;29.85;17.55;;;5.60;99.90;;;;;;2083453;28;20025;-76
2023/04/08 02:04:57;;;;;;;30.33;17.88;;;5.70;99.90;;;;;;2085474;28;20112;-77
2023/04/08 02:05:58;;;;;;;31.88;18.30;;;5.70;99.90;;;;;;2077381;28;20467;-77
2023/04/08 02:07:00;;;;;;;32.33;18.67;;;5.70;99.90;;;;;;2087817;28;20793;-77
2023/04/08 02:08:01;;;;;;;32.42;18.88;;;5.60;99.90;;;;;;2079344;28;20032;-77
2023/04/08 02:09:01;;;;;;;31.65;18.50;;;5.70;99.90;;;;;;2081292;28;20523;-71
2023/04/08 02:10:03;;;;;;;30.70;18.10;;;5.60;99.90;;;;;;2085842;28;20021;-77
2023/04/08 02:11:05;;;;;;;29.10;17.27;;;5.70;99.90;;;;;;2085245;28;20028;-78
2023/04/08 02:12:05;;;;;;;29.88;17.25;;;5.60;99.90;;;;;;2075146;28;20116;-77
2023/04/08 02:13:07;;;;;;;28.88;17.10;;;5.60;99.90;;;;;;2086381;28;20050;-78
2023/04/08 02:14:07;;;;;;;29.02;17.13;;;5.60;99.90;;;;;;2092104;28;20317;-78
2023/04/08 02:15:09;;;;;;;29.05;16.85;;;5.70;99.90;;;;;;2083361;28;20037;-78
2023/04/08 02:16:18;;;;;;;28.38;16.00;;;5.70;99.90;;;;;;2082249;28;20538;-76
2023/04/08 02:17:34;;;;;;;26.88;16.23;;;5.60;99.90;;;;;;2078867;28;20463;-79
2023/04/08 02:18:37;;;;;;;25.55;15.48;;;5.60;99.90;;;;;;2074491;28;20395;-80
2023/04/08 02:19:46;;;;;;;27.25;16.17;;;5.60;99.90;;;;;;2072082;28;20064;-80
2023/04/08 02:20:53;;;;;;;27.10;16.20;;;5.70;99.90;;;;;;2068772;28;20344;-80
2023/04/08 02:22:04;;;;;;;24.42;14.80;;;5.70;99.90;;;;;;2071980;28;20079;-80
2023/04/08 02:23:17;;;;;;;24.73;14.93;;;5.70;99.90;;;;;;2078717;28;20024;-80
2023/04/08 02:24:19;;;;;;;24.65;14.65;;;5.70;99.90;;;;;;2082776;28;20045;-79
2023/04/08 02:25:24;;;;;;;24.00;14.73;;;5.70;99.90;;;;;;2082301;28;20624;-79
2023/04/08 02:26:26;;;;;;;25.33;14.82;;;5.70;99.90;;;;;;2078043;28;20203;-80
2023/04/08 02:27:34;;;;;;;26.15;15.07;;;5.70;99.90;;;;;;2077439;28;20037;-77
2023/04/08 02:28:35;;;;;;;25.05;15.05;;;5.70;99.90;;;;;;2079956;28;20461;-79
2023/04/08 02:29:39;;;;;;;26.63;15.68;;;5.60;99.90;;;;;;2083599;28;20518;-79
2023/04/08 02:30:46;;;;;;;26.25;15.32;;;5.70;99.90;;;;;;2086937;28;20055;-79
2023/04/08 02:31:49;;;;;;;25.80;14.82;;;5.60;99.90;;;;;;2085603;28;20032;-79
2023/04/08 02:32:52;;;;;;;23.25;14.27;;;5.60;99.90;;;;;;2083478;28;20025;-79
2023/04/08 02:33:54;;;;;;;25.67;14.50;;;5.60;99.90;;;;;;2090979;28;20024;-77
2023/04/08 02:34:56;;;;;;;24.15;13.95;;;5.70;99.90;;;;;;2091749;28;20121;-79
2023/04/08 02:35:57;;;;;;;24.88;14.77;;;5.70;99.90;;;;;;2087282;28;20024;-79
2023/04/08 02:36:58;;;;;;;24.33;14.80;;;5.70;99.90;;;;;;2082234;28;20033;-78
2023/04/08 02:37:59;;;;;;;27.00;15.13;;;5.70;99.90;;;;;;2074806;28;20037;-79
2023/04/08 02:38:59;;;;;;;24.60;14.40;;;5.70;99.90;;;;;;2087208;28;20138;-79
2023/04/08 02:40:00;;;;;;;25.38;14.25;;;5.70;99.90;;;;;;2086386;28;20098;-79
2023/04/08 02:41:00;;;;;;;24.02;14.48;;;5.70;99.90;;;;;;2081581;28;20032;-79
2023/04/08 02:42:03;;;;;;;23.17;13.48;;;5.70;99.90;;;;;;2086387;28;20036;-80
2023/04/08 02:43:04;;;;;;;23.23;13.52;;;5.70;99.90;;;;;;2082572;28;20519;-79
2023/04/08 02:44:05;;;;;;;23.17;13.70;;;5.70;99.90;;;;;;2087834;28;20043;-79
2023/04/08 02:45:06;;;;;;;20.63;12.63;;;5.70;99.90;;;;;;2086135;28;20919;-79
2023/04/08 02:46:08;;;;;;;21.50;13.32;;;5.80;99.90;;;;;;2093879;28;20054;-79
2023/04/08 02:47:10;;;;;;;21.77;12.45;;;5.70;99.90;;;;;;2085962;28;20027;-79
2023/04/08 02:48:11;;;;;;;19.55;12.30;;;5.80;99.90;;;;;;2082183;28;20291;-79
2023/04/08 02:49:11;;;;;;;21.95;12.57;;;5.80;99.90;;;;;;2080527;28;20120;-78
2023/04/08 02:50:12;;;;;;;20.38;12.20;;;5.80;99.90;;;;;;2080756;28;20030;-78
2023/04/08 02:51:12;;;;;;;20.63;12.23;;;5.80;99.90;;;;;;2084476;28;20446;-79
2023/04/08 02:52:13;;;;;;;19.58;11.93;;;5.80;99.90;;;;;;2084903;28;20260;-78
2023/04/08 02:53:14;;;;;;;21.70;13.07;;;5.80;99.90;;;;;;2085291;28;20020;-78
2023/04/08 02:54:15;;;;;;;20.90;12.45;;;5.80;99.90;;;;;;2076266;28;20511;-78
2023/04/08 02:55:16;;;;;;;22.73;13.35;;;5.80;99.90;;;;;;2073128;28;20037;-77
2023/04/08 02:56:16;;;;;;;22.25;13.10;;;5.80;99.90;;;;;;2076814;28;20025;-78
2023/04/08 02:57:17;;;;;;;19.85;12.02;;;5.80;99.90;;;;;;2076832;28;20121;-77
2023/04/08 02:58:18;;;;;;;22.45;13.50;;;5.80;99.90;;;;;;2076835;28;20067;-79
2023/04/08 02:59:18;;;;;;;21.48;12.90;;;5.80;99.90;;;;;;2087568;28;20033;-80
2023/04/08 03:00:19;;;;;;;21.08;12.68;;;5.80;99.90;;;;;;2085040;28;20286;-78
2023/04/08 03:01:19;;;;;;;21.45;13.13;;;5.80;99.90;;;;;;2084745;28;20031;-76
2023/04/08 03:02:20;;;;;;;20.90;12.15;;;5.80;99.90;;;;;;2094542;28;20028;-77
2023/04/08 03:03:28;;;;;;;21.52;13.15;;;5.80;99.90;;;;;;2095790;28;20035;-77
2023/04/08 03:04:28;;;;;;;21.40;13.10;;;5.80;99.90;;;;;;2095871;28;20028;-78
2023/04/08 03:05:29;;;;;;;20.83;12.57;;;5.80;99.90;;;;;;2081823;28;20028;-77
2023/04/08 03:06:31;;;;;;;19.75;11.88;;;5.80;99.90;;;;;;2084499;28;20029;-78
2023/04/08 03:07:31;;;;;;;20.52;12.10;;;5.80;99.90;;;;;;2080588;28;20025;-77
2023/04/08 03:08:32;;;;;;;20.70;12.05;;;5.80;99.90;;;;;;2084862;28;20064;-77
2023/04/08 03:09:33;;;;;;;20.63;12.10;;;5.80;99.90;;;;;;2074990;28;20493;-78
2023/04/08 03:10:33;;;;;;;22.73;12.32;;;5.80;99.90;;;;;;2080335;28;20030;-77
2023/04/08 03:11:34;;;;;;;18.95;11.60;;;5.80;99.90;;;;;;2079182;28;20074;-78
2023/04/08 03:12:35;;;;;;;20.98;12.43;;;5.80;99.90;;;;;;2083707;28;20017;-78
2023/04/08 03:13:35;;;;;;;23.10;13.48;;;5.80;99.90;;;;;;2081059;28;20041;-78
2023/04/08 03:14:36;;;;;;;21.75;13.25;;;5.80;99.90;;;;;;2084789;28;20047;-79
2023/04/08 03:15:37;;;;;;;20.77;12.27;;;5.80;99.90;;;;;;2074246;28;20512;-78
2023/04/08 03:16:37;;;;;;;21.80;13.13;;;5.80;99.90;;;;;;2067285;28;20034;-78
2023/04/08 03:17:38;;;;;;;19.77;12.00;;;5.80;99.90;;;;;;2077025;28;20675;-79
2023/04/08 03:18:38;;;;;;;19.08;11.85;;;5.80;99.90;;;;;;2080494;28;20029;-79
2023/04/08 03:19:39;;;;;;;19.63;11.70;;;5.80;99.90;;;;;;2084484;28;20124;-79
2023/04/08 03:20:40;;;;;;;19.17;11.77;;;5.80;99.90;;;;;;2085812;28;20028;-78
2023/04/08 03:21:40;;;;;;;18.08;11.30;;;5.90;99.90;;;;;;2086616;28;20037;-78
2023/04/08 03:22:41;;;;;;;20.77;12.23;;;5.90;99.90;;;;;;2085762;28;20095;-78
2023/04/08 03:23:41;;;;;;;33.10;18.55;;;5.90;99.90;;;;;;2081544;28;20056;-78
2023/04/08 03:24:42;;;;;;;31.90;17.88;;;5.90;99.90;;;;;;2079706;28;20026;-78
2023/04/08 03:25:42;;;;;;;24.98;15.63;;;5.90;99.90;;;;;;2082408;28;20092;-79
2023/04/08 03:26:43;;;;;;;23.55;13.82;;;5.90;99.90;;;;;;2088134;28;20063;-78
2023/04/08 03:27:44;;;;;;;22.80;12.98;;;5.90;99.90;;;;;;2086839;28;20112;-78
2023/04/08 03:28:44;;;;;;;20.13;12.07;;;5.90;99.90;;;;;;2081850;28;20434;-77
2023/04/08 03:29:45;;;;;;;21.17;12.02;;;5.90;99.90;;;;;;2090077;28;20036;-77
2023/04/08 03:30:46;;;;;;;19.38;12.07;;;5.80;99.90;;;;;;2088632;28;20557;-78
2023/04/08 03:31:46;;;;;;;21.85;13.00;;;5.90;99.90;;;;;;2082035;28;20024;-77
2023/04/08 03:32:47;;;;;;;20.77;12.77;;;5.80;99.90;;;;;;2085708;28;20115;-78
2023/04/08 03:33:47;;;;;;;19.38;11.20;;;5.90;99.90;;;;;;2081356;28;20029;-78
2023/04/08 03:34:50;;;;;;;19.88;12.23;;;5.80;99.90;;;;;;2085060;28;20664;-78
2023/04/08 03:35:50;;;;;;;21.10;12.57;;;5.80;99.90;;;;;;2083954;28;20031;-78
2023/04/08 03:36:51;;;;;;;19.20;12.15;;;5.80;99.90;;;;;;2076499;28;20150;-78
2023/04/08 03:37:51;;;;;;;20.55;12.23;;;5.90;99.90;;;;;;2088514;28;20119;-78
2023/04/08 03:38:52;;;;;;;19.13;11.77;;;5.90;99.90;;;;;;2089802;28;20483;-79
2023/04/08 03:39:53;;;;;;;19.08;11.30;;;5.90;99.90;;;;;;2084045;28;20036;-79
2023/04/08 03:40:54;;;;;;;17.73;10.80;;;5.90;99.90;;;;;;2079479;28;20033;-79
2023/04/08 03:41:55;;;;;;;20.05;12.18;;;5.90;99.90;;;;;;2081383;28;20040;-79
2023/04/08 03:42:56;;;;;;;21.10;13.20;;;5.90;99.90;;;;;;2074850;28;20057;-79
2023/04/08 03:43:56;;;;;;;19.85;12.18;;;5.90;99.90;;;;;;2084938;28;20032;-79
2023/04/08 03:44:57;;;;;;;20.48;12.07;;;5.90;99.90;;;;;;2084084;28;20024;-79
2023/04/08 03:45:58;;;;;;;19.30;11.65;;;5.90;99.90;;;;;;2089073;28;20967;-79
2023/04/08 03:46:59;;;;;;;19.63;12.48;;;5.90;99.90;;;;;;2082633;28;20029;-79
2023/04/08 03:47:59;;;;;;;18.23;11.48;;;5.90;99.90;;;;;;2081429;28;20400;-78
2023/04/08 03:49:00;;;;;;;18.48;11.38;;;5.90;99.90;;;;;;2083027;28;20031;-79
2023/04/08 03:50:00;;;;;;;16.83;10.93;;;5.90;99.90;;;;;;2082005;28;20048;-79
2023/04/08 03:51:01;;;;;;;16.80;10.63;;;5.90;99.90;;;;;;2081525;28;20033;-79
2023/04/08 03:52:01;;;;;;;18.33;11.10;;;5.90;99.90;;;;;;2073327;28;20041;-79
2023/04/08 03:53:02;;;;;;;16.70;11.13;;;5.90;99.90;;;;;;2081343;28;20539;-79
2023/04/08 03:54:02;;;;;;;16.60;10.23;;;5.90;99.90;;;;;;2082080;28;20020;-79
2023/04/08 03:55:04;;;;;;;17.75;11.18;;;5.90;99.90;;;;;;2084021;28;20033;-78
2023/04/08 03:56:05;;;;;;;17.92;11.32;;;5.90;99.90;;;;;;2083886;28;20091;-77
2023/04/08 03:57:05;;;;;;;19.23;10.98;;;5.90;99.90;;;;;;2081962;28;20033;-78
2023/04/08 03:58:06;;;;;;;17.13;11.10;;;5.90;99.90;;;;;;2085673;28;20029;-79
2023/04/08 03:59:06;;;;;;;16.77;10.93;;;5.90;99.90;;;;;;2081466;28;20021;-78
2023/04/08 04:00:08;;;;;;;16.27;10.80;;;5.90;99.90;;;;;;2082824;28;20116;-77
2023/04/08 04:01:12;;;;;;;15.52;10.10;;;5.90;99.90;;;;;;2083254;28;20147;-77
2023/04/08 04:02:13;;;;;;;14.73;9.80;;;5.90;99.90;;;;;;2069007;28;20038;-78
2023/04/08 04:03:13;;;;;;;16.17;10.25;;;5.90;99.90;;;;;;2066903;28;20914;-78
2023/04/08 04:04:15;;;;;;;15.15;10.02;;;5.90;99.90;;;;;;2082840;28;20021;-78
2023/04/08 04:05:15;;;;;;;15.02;9.25;;;5.90;99.90;;;;;;2084117;28;20052;-78
2023/04/08 04:06:16;;;;;;;15.82;10.27;;;5.90;99.90;;;;;;2085526;28;20009;-78
2023/04/08 04:07:16;;;;;;;17.45;10.77;;;5.90;99.90;;;;;;2074772;28;20231;-78
2023/04/08 04:08:17;;;;;;;15.10;9.73;;;5.90;99.90;;;;;;2074417;28;20152;-78
2023/04/08 04:09:18;;;;;;;15.43;9.65;;;5.90;99.90;;;;;;2080002;28;20186;-78
2023/04/08 04:10:19;;;;;;;17.50;10.30;;;5.90;99.90;;;;;;2083555;28;20039;-77
2023/04/08 04:11:20;;;;;;;16.27;10.45;;;5.90;99.90;;;;;;2084745;28;20106;-78
2023/04/08 04:12:21;;;;;;;15.38;9.93;;;5.90;99.90;;;;;;2080234;28;20043;-78
2023/04/08 04:13:22;;;;;;;14.20;9.32;;;5.90;99.90;;;;;;2081103;28;20032;-78
2023/04/08 04:14:23;;;;;;;14.82;9.27;;;5.90;99.90;;;;;;2081091;28;20028;-79
2023/04/08 04:15:23;;;;;;;14.18;9.25;;;5.90;99.90;;;;;;2076365;28;20041;-80
2023/04/08 04:16:24;;;;;;;14.90;9.15;;;5.90;99.90;;;;;;2066440;28;20061;-81
2023/04/08 04:17:25;;;;;;;13.35;8.73;;;5.90;99.90;;;;;;2077095;28;20037;-79
2023/04/08 04:18:25;;;;;;;13.65;8.80;;;5.90;99.90;;;;;;2083008;28;20033;-78
2023/04/08 04:19:30;;;;;;;12.80;8.50;;;5.80;99.90;;;;;;2082727;28;20496;-79
2023/04/08 04:20:31;;;;;;;13.10;8.60;;;5.80;99.90;;;;;;2082790;28;20091;-78
2023/04/08 04:21:31;;;;;;;12.82;8.13;;;5.80;99.90;;;;;;2078989;28;20037;-78
2023/04/08 04:22:32;;;;;;;14.73;9.27;;;5.90;99.90;;;;;;2082894;28;20086;-78
2023/04/08 04:23:33;;;;;;;15.88;9.13;;;5.80;99.90;;;;;;2088917;28;20033;-79
2023/04/08 04:24:33;;;;;;;14.18;9.07;;;5.80;99.90;;;;;;2082821;28;20512;-79
2023/04/08 04:25:34;;;;;;;14.25;8.90;;;5.80;99.90;;;;;;2074609;28;20060;-80
2023/04/08 04:26:34;;;;;;;15.25;9.07;;;5.80;99.90;;;;;;2076514;28;20082;-79
2023/04/08 04:27:35;;;;;;;12.93;8.48;;;5.80;99.90;;;;;;2081367;28;20041;-80
2023/04/08 04:28:37;;;;;;;14.38;9.07;;;5.70;99.90;;;;;;2086810;28;20040;-77
2023/04/08 04:29:37;;;;;;;12.48;8.57;;;5.80;99.90;;;;;;2083538;28;20074;-78
2023/04/08 04:30:39;;;;;;;15.38;9.38;;;5.80;99.90;;;;;;2088798;28;20070;-78
2023/04/08 04:31:39;;;;;;;14.63;9.30;;;5.70;99.90;;;;;;2083025;28;20032;-78
2023/04/08 04:32:41;;;;;;;15.98;9.45;;;5.80;99.90;;;;;;2090872;28;20416;-77
2023/04/08 04:33:42;;;;;;;13.65;8.73;;;5.80;99.90;;;;;;2082759;28;20040;-77
2023/04/08 04:34:43;;;;;;;14.80;9.13;;;5.80;99.90;;;;;;2084571;28;20128;-79
2023/04/08 04:35:44;;;;;;;14.30;9.07;;;5.80;99.90;;;;;;2083593;28;20115;-80
2023/04/08 04:36:44;;;;;;;14.70;9.15;;;5.80;99.90;;;;;;2083171;28;20041;-80
2023/04/08 04:37:46;;;;;;;15.02;9.38;;;5.80;99.90;;;;;;2082484;28;20510;-79
2023/04/08 04:38:48;;;;;;;15.20;9.13;;;5.80;99.90;;;;;;2082313;28;20475;-78
2023/04/08 04:39:48;;;;;;;14.35;9.07;;;5.80;99.90;;;;;;2083007;28;20037;-81
2023/04/08 04:40:49;;;;;;;16.23;9.55;;;5.80;99.90;;;;;;2086909;28;20182;-78
2023/04/08 04:41:50;;;;;;;15.38;9.23;;;5.80;99.90;;;;;;2074209;28;20496;-77
2023/04/08 04:42:50;;;;;;;17.63;10.10;;;5.80;99.90;;;;;;2074405;28;20044;-78
2023/04/08 04:43:51;;;;;;;15.60;9.20;;;5.80;99.90;;;;;;2088211;28;20391;-79
2023/04/08 04:44:53;;;;;;;16.13;9.80;;;5.80;99.90;;;;;;2091510;28;20025;-86
2023/04/08 04:45:55;;;;;;;17.63;9.90;;;5.80;99.90;;;;;;2083312;28;20068;-86
2023/04/08 04:46:56;;;;;;;19.17;10.75;;;5.80;99.90;;;;;;2082802;28;20028;-80
2023/04/08 04:47:59;;;;;;;16.95;10.80;;;5.80;99.90;;;;;;2082472;28;20090;-83
2023/04/08 04:49:00;;;;;;;17.42;10.48;;;5.80;99.90;;;;;;2073431;28;20539;-82
2023/04/08 04:50:01;;;;;;;17.00;10.25;;;5.80;99.90;;;;;;2074411;28;20060;-81
2023/04/08 04:51:02;;;;;;;16.65;10.38;;;5.80;99.90;;;;;;2074899;28;20495;-82
2023/04/08 04:52:04;;;;;;;17.08;10.15;;;5.80;99.90;;;;;;2069465;28;20595;-84
2023/04/08 04:53:05;;;;;;;18.75;10.60;;;5.80;99.90;;;;;;2083504;28;20120;-88
2023/04/08 04:54:05;;;;;;;20.20;11.25;;;5.80;99.90;;;;;;2085634;28;20044;-83
2023/04/08 04:55:06;;;;;;;20.83;11.57;;;5.80;99.90;;;;;;2083516;28;20075;-86
2023/04/08 04:56:07;;;;;;;18.52;11.50;;;5.80;99.90;;;;;;2090124;28;20028;-84
2023/04/08 04:57:07;;;;;;;16.65;10.70;;;5.70;99.90;;;;;;2084911;28;20029;-84
2023/04/08 04:58:08;;;;;;;17.70;10.40;;;5.80;99.90;;;;;;2085750;28;20518;-88
2023/04/08 04:59:08;;;;;;;18.92;11.20;;;5.80;99.90;;;;;;2084524;28;20679;-85
2023/04/08 05:00:09;;;;;;;17.13;10.98;;;5.80;99.90;;;;;;2077012;28;20555;-82
2023/04/08 05:01:10;;;;;;;16.08;9.85;;;5.80;99.90;;;;;;2085528;28;20118;-86
2023/04/08 05:02:10;;;;;;;17.23;10.55;;;5.80;99.90;;;;;;2086796;28;20094;-86
2023/04/08 05:03:11;;;;;;;19.20;11.15;;;5.80;99.90;;;;;;2083840;28;21064;-84
2023/04/08 05:04:12;;;;;;;17.23;10.50;;;5.80;99.90;;;;;;2084502;28;20111;-82
2023/04/08 05:05:13;;;;;;;18.00;10.50;;;5.90;99.90;;;;;;2084055;28;20680;-85
2023/04/08 05:06:13;;;;;;;17.35;10.52;;;5.90;99.90;;;;;;2084024;28;20039;-84
2023/04/08 05:07:14;;;;;;;18.52;11.00;;;5.80;99.90;;;;;;2086033;28;20024;-87
2023/04/08 05:08:14;;;;;;;17.42;10.57;;;5.90;99.90;;;;;;2086099;28;20033;-86
2023/04/08 05:09:15;;;;;;;16.35;10.50;;;5.90;99.90;;;;;;2076121;28;20064;-85
2023/04/08 05:10:15;;;;;;;18.00;10.98;;;5.80;99.90;;;;;;2075052;28;20053;-74
2023/04/08 05:11:17;;;;;;;18.48;11.00;;;5.80;99.90;;;;;;2073593;28;20029;-74
2023/04/08 05:12:19;;;;;;;18.02;10.90;;;5.80;99.90;;;;;;2073679;28;20021;-74
2023/04/08 05:13:20;;;;;;;17.30;10.40;;;5.80;99.90;;;;;;2082471;28;20040;-74
2023/04/08 05:14:20;;;;;;;16.67;10.20;;;5.80;99.90;;;;;;2085940;28;20071;-73
2023/04/08 05:15:21;;;;;;;15.10;9.52;;;5.80;99.90;;;;;;2079239;28;20417;-74
2023/04/08 05:16:21;;;;;;;16.70;10.13;;;5.80;99.90;;;;;;2073212;28;20128;-74
2023/04/08 05:17:22;;;;;;;17.75;10.73;;;5.80;99.90;;;;;;2073552;28;20032;-74
2023/04/08 05:18:22;;;;;;;18.77;10.60;;;5.80;99.90;;;;;;2082579;28;20025;-74
2023/04/08 05:19:23;;;;;;;16.08;10.20;;;5.70;99.90;;;;;;2068080;28;20499;-74